»·PEaware :: N1CE KSNA-KRNM

N1CE :: KSNA-KRNM

FLIGHT INFORMATION

Flight Status: Arrived
Operator: Privately registered:
United States
More flights under this callsign
Pilot: Shay T. (30528)
Aircraft: CESSNA 172 SKYHAWK
(C172)
More flights by this aircraft type
Origin: KSNA John Wayne-Orange Co
United States
Destination: KRNM Ramona
United States
More flights between these airports :: More routes between these airports
Route: +V23 OCN V208 JLI
File this flight plan on PilotEdge
Remarks:
Altitude:
(Current/Filed)
7,000ft
Speed:
(Current/Filed)
100kts
Departed: 30-Sep-20 12:14 PM
Arrived: 30-Sep-20 12:53 PM
Distance/Time
Traveled:
61nm/0:38
Distance/Time
To Go:
Arrived

Flight Plot

Page will automatically refresh every two minutes.


Map Options




Map Legend


Flown Route
Filed Route
Departure Airport
Arrival Airport
Navaid (VOR, NDB)
Fix

Horizontal Profiles

Position Reports

Time Latitude Longitude Heading Altitude Ground
Speed
30-Sep-20 11:58 33.672446 -117.867192 208 60ft 0kts
30-Sep-20 11:59 33.672446 -117.867192 208 60ft 0kts
30-Sep-20 12:00 33.672446 -117.867192 208 60ft 0kts
30-Sep-20 12:01 33.672446 -117.867192 208 60ft 0kts
30-Sep-20 12:02 33.672446 -117.867192 208 60ft 0kts
30-Sep-20 12:03 33.672446 -117.867192 208 60ft 0kts
30-Sep-20 12:04 33.672446 -117.867192 208 60ft 0kts
30-Sep-20 12:05 33.672446 -117.867192 208 60ft 0kts
30-Sep-20 12:06 33.672446 -117.867192 208 60ft 0kts
30-Sep-20 12:07 33.672446 -117.867192 208 60ft 0kts
30-Sep-20 12:08 33.672446 -117.867192 208 60ft 0kts
30-Sep-20 12:09 33.673482 -117.866967 352 60ft 12kts
30-Sep-20 12:10 33.679713 -117.863523 11 60ft 13kts
30-Sep-20 12:11 33.679961 -117.863622 296 60ft 0kts
30-Sep-20 12:12 33.680064 -117.863933 276 60ft 9kts
30-Sep-20 12:13 33.665805 -117.873956 203 533ft 83kts
30-Sep-20 12:14 33.643324 -117.879313 184 1455ft 84kts
30-Sep-20 12:15 33.620358 -117.884014 188 2326ft 84kts
30-Sep-20 12:16 33.597315 -117.889417 192 3139ft 85kts
30-Sep-20 12:17 33.574254 -117.896673 188 3904ft 86kts
30-Sep-20 12:18 33.550662 -117.902645 190 4626ft 88kts
30-Sep-20 12:19 33.528513 -117.899113 115 5412ft 88kts
30-Sep-20 12:20 33.518317 -117.872448 113 6162ft 88kts
30-Sep-20 12:21 33.508030 -117.845292 115 6856ft 90kts
30-Sep-20 12:22 33.495849 -117.812845 113 6997ft 119kts
30-Sep-20 12:23 33.480619 -117.777116 118 7020ft 121kts
30-Sep-20 12:24 33.465552 -117.740109 117 6965ft 124kts
30-Sep-20 12:25 33.449204 -117.704025 114 6955ft 123kts
30-Sep-20 12:26 33.434040 -117.667186 116 6936ft 123kts
30-Sep-20 12:27 33.418313 -117.631126 123 6959ft 121kts
30-Sep-20 12:28 33.394587 -117.602452 134 6982ft 121kts
30-Sep-20 12:29 33.371356 -117.573029 138 6997ft 121kts
30-Sep-20 12:30 33.346933 -117.544919 133 7024ft 121kts
30-Sep-20 12:31 33.322988 -117.516370 133 7054ft 122kts
30-Sep-20 12:32 33.298609 -117.487267 136 7040ft 127kts
30-Sep-20 12:33 33.272981 -117.457550 133 6986ft 128kts
30-Sep-20 12:34 33.247239 -117.428442 139 6952ft 128kts
30-Sep-20 12:35 33.231073 -117.392901 95 6959ft 129kts
30-Sep-20 12:36 33.226421 -117.350848 96 6940ft 127kts
30-Sep-20 12:37 33.222821 -117.309366 92 6993ft 125kts
30-Sep-20 12:38 33.222072 -117.267223 92 6989ft 125kts
30-Sep-20 12:39 33.218033 -117.225822 98 6926ft 125kts
30-Sep-20 12:40 33.213399 -117.185527 98 6972ft 123kts
30-Sep-20 12:41 33.208587 -117.145094 96 7031ft 123kts
30-Sep-20 12:42 33.203117 -117.104547 102 7072ft 122kts
30-Sep-20 12:43 33.198849 -117.063762 96 7092ft 123kts
30-Sep-20 12:44 33.194036 -117.022058 105 6987ft 128kts
30-Sep-20 12:45 33.169571 -116.994283 146 5590ft 124kts
30-Sep-20 12:46 33.141682 -116.972230 144 4962ft 112kts
30-Sep-20 12:47 33.116779 -116.951121 145 4958ft 110kts
30-Sep-20 12:48 33.089195 -116.936203 166 3919ft 110kts
30-Sep-20 12:49 33.060433 -116.928588 155 2728ft 102kts
30-Sep-20 12:50 33.049628 -116.901145 101 2354ft 96kts
30-Sep-20 12:51 33.036544 -116.898840 269 1702ft 67kts
30-Sep-20 12:52 33.039271 -116.912442 356 1396ft 0kts
30-Sep-20 12:53 33.039794 -116.913618 4 1396ft 2kts
30-Sep-20 12:54 33.040105 -116.914108 182 1396ft 0kts
30-Sep-20 12:55 33.040105 -116.914108 182 1396ft 0kts
30-Sep-20 12:56 33.040105 -116.914108 182 1396ft 0kts
30-Sep-20 12:57 33.040105 -116.914108 182 1396ft 0kts
30-Sep-20 12:58 33.040105 -116.914108 182 1396ft 0kts
30-Sep-20 12:59 33.040105 -116.914108 182 1396ft 0kts
30-Sep-20 13:00 33.040105 -116.914108 182 1396ft 0kts
30-Sep-20 13:02 33.040105 -116.914108 182 1396ft 0kts
30-Sep-20 13:03 33.040105 -116.914108 182 1396ft 0kts
30-Sep-20 13:04 33.040105 -116.914108 182 1396ft 0kts
30-Sep-20 13:05 33.040105 -116.914108 182 1396ft 0kts
30-Sep-20 13:06 33.040105 -116.914108 182 1396ft 0kts
30-Sep-20 13:07 33.040105 -116.914108 182 1396ft 0kts

Navigation Log

Ident Type
Flight plan parsing failed, navigation log unavailable